Time;durP1;ratioP1;P1;durP2;ratioP2;P2;SDS_P1;SDS_P2;PMS_P1;PMS_P2;Temp;Humidity;BMP_temperature;BMP_pressure;BME280_temperature;BME280_humidity;BME280_pressure;Samples;Min_cycle;Max_cycle;Signal;HPM_P1;HPM_P2
2021/08/04 00:01:32;;;;;;;11.20;10.17;;;;;;;13.46;81.19;101403.69;5116279;28;20470;-35
2021/08/04 00:03:57;;;;;;;12.27;10.77;;;;;;;13.44;81.41;101386.81;5116754;28;20023;-34
2021/08/04 00:06:22;;;;;;;13.83;10.83;;;;;;;13.32;81.42;101385.97;5116731;28;20451;-34
2021/08/04 00:08:48;;;;;;;12.37;11.07;;;;;;;13.44;82.13;101394.97;5116433;28;20611;-34
2021/08/04 00:11:13;;;;;;;14.57;11.60;;;;;;;13.39;82.17;101403.00;5116301;28;20020;-35
2021/08/04 00:13:38;;;;;;;12.63;11.30;;;;;;;13.45;82.49;101391.19;5116256;28;20030;-34
2021/08/04 00:16:04;;;;;;;14.40;13.00;;;;;;;13.29;82.80;101375.59;5114170;28;20671;-35
2021/08/04 00:18:30;;;;;;;14.32;12.30;;;;;;;13.38;82.72;101385.06;5116205;28;20023;-34
2021/08/04 00:20:55;;;;;;;12.85;11.57;;;;;;;13.27;83.01;101377.72;5116284;28;20058;-34
2021/08/04 00:23:21;;;;;;;13.75;12.43;;;;;;;13.38;83.36;101393.22;5115746;28;20069;-35
2021/08/04 00:25:46;;;;;;;13.73;12.13;;;;;;;13.33;83.14;101393.09;5116183;28;20043;-34
2021/08/04 00:28:11;;;;;;;15.03;12.80;;;;;;;13.31;82.87;101387.06;5114899;28;20036;-34
2021/08/04 00:30:37;;;;;;;14.10;12.70;;;;;;;13.36;82.81;101387.16;5116558;28;20249;-34
2021/08/04 00:33:02;;;;;;;13.67;12.33;;;;;;;13.34;82.96;101378.44;5115640;28;20270;-34
2021/08/04 00:35:27;;;;;;;12.80;11.50;;;;;;;13.31;82.71;101382.44;5116459;28;20031;-34
2021/08/04 00:37:53;;;;;;;12.60;11.30;;;;;;;13.13;82.62;101356.22;5116546;28;20125;-34
2021/08/04 00:40:19;;;;;;;11.97;10.77;;;;;;;13.22;82.81;101369.44;5115750;28;20046;-34
2021/08/04 00:42:45;;;;;;;13.93;10.93;;;;;;;13.30;82.78;101378.09;5115863;28;20344;-34
2021/08/04 00:45:11;;;;;;;12.32;11.20;;;;;;;13.26;82.68;101386.94;5115801;28;20028;-35
2021/08/04 00:47:37;;;;;;;11.52;10.38;;;;;;;13.23;82.95;101388.25;5116359;28;20027;-34
2021/08/04 00:50:03;;;;;;;12.20;10.93;;;;;;;13.20;83.18;101383.25;5114728;28;20363;-34
2021/08/04 00:52:28;;;;;;;12.23;11.02;;;;;;;13.20;83.25;101387.84;5115276;28;20027;-35
2021/08/04 00:54:54;;;;;;;11.10;10.10;;;;;;;13.03;82.72;101372.25;5115495;28;20034;-35
2021/08/04 00:57:19;;;;;;;11.95;10.75;;;;;;;13.06;82.75;101382.63;5115257;28;20056;-34
2021/08/04 00:59:45;;;;;;;11.73;9.60;;;;;;;13.03;82.74;101377.69;5115734;28;20098;-35
2021/08/04 01:02:18;;;;;;;11.65;10.18;;;;;;;13.00;82.99;101383.56;5115621;28;20016;-35
2021/08/04 01:04:51;;;;;;;11.18;9.98;;;;;;;12.94;83.01;101384.53;5115005;28;20024;-35
2021/08/04 01:07:54;;;;;;;10.95;9.85;;;;;;;12.94;82.87;101372.84;5115717;28;20044;-34
2021/08/04 01:10:33;;;;;;;12.02;10.77;;;;;;;13.01;83.62;101385.22;5107054;28;20474;-34
2021/08/04 01:13:11;;;;;;;11.93;10.73;;;;;;;13.04;84.21;101389.38;5114100;28;20124;-34
2021/08/04 01:15:43;;;;;;;12.27;10.98;;;;;;;13.03;84.44;101387.69;5114958;28;20043;-34
2021/08/04 01:18:12;;;;;;;11.75;10.65;;;;;;;13.03;84.09;101393.97;5114720;28;20023;-34
2021/08/04 01:20:37;;;;;;;10.80;9.70;;;;;;;12.95;83.36;101388.88;5115142;28;20127;-35
2021/08/04 01:23:12;;;;;;;12.90;10.63;;;;;;;12.89;83.69;101392.53;5114612;28;20074;-35
2021/08/04 01:26:06;;;;;;;11.77;9.68;;;;;;;12.91;83.22;101392.28;5115057;28;20043;-34
2021/08/04 01:28:38;;;;;;;12.23;9.80;;;;;;;12.81;83.26;101387.44;5031864;28;20605;-35
2021/08/04 01:31:07;;;;;;;13.45;9.95;;;;;;;12.75;83.04;101385.66;5031870;28;20104;-34
2021/08/04 01:33:36;;;;;;;11.57;10.43;;;;;;;12.72;83.56;101394.25;5031742;28;20036;-34
2021/08/04 01:36:02;;;;;;;10.68;9.57;;;;;;;12.69;83.79;101392.00;5031692;28;20048;-34
2021/08/04 01:38:28;;;;;;;;;;;;;;;12.90;82.07;101391.47;5032110;28;20029;-34
2021/08/04 01:40:55;;;;;;;11.30;10.10;;;;;;;12.67;84.24;101373.22;5031193;28;20046;-34
2021/08/04 01:43:23;;;;;;;11.32;10.07;;;;;;;12.77;84.51;101392.50;5032249;28;20030;-35
2021/08/04 01:45:50;;;;;;;11.13;9.70;;;;;;;12.70;84.23;101382.81;5031725;28;20049;-35
2021/08/04 01:48:16;;;;;;;13.48;10.60;;;;;;;12.68;84.55;101391.16;5031495;28;20188;-35
2021/08/04 01:50:42;;;;;;;11.07;9.98;;;;;;;12.67;83.80;101388.69;5032081;28;20125;-35
2021/08/04 01:53:08;;;;;;;10.80;9.20;;;;;;;12.74;84.09;101395.69;5031700;28;20147;-35
2021/08/04 01:55:33;;;;;;;12.20;10.50;;;;;;;12.74;84.61;101389.44;5031323;28;20021;-35
2021/08/04 01:57:59;;;;;;;11.05;9.85;;;;;;;12.71;85.10;101392.59;5031475;28;20029;-35
2021/08/04 02:00:24;;;;;;;11.30;10.20;;;;;;;12.78;84.60;101390.59;5032075;28;20450;-35
2021/08/04 02:02:50;;;;;;;10.65;9.45;;;;;;;12.74;84.29;101390.25;5031753;28;20120;-35
2021/08/04 02:05:15;;;;;;;10.70;9.27;;;;;;;12.74;83.72;101384.00;5072859;28;20032;-35
2021/08/04 02:07:53;;;;;;;10.87;9.77;;;;;;;12.68;83.80;101395.78;5113827;28;20058;-34
2021/08/04 02:10:25;;;;;;;12.13;9.70;;;;;;;12.59;83.86;101390.69;5113862;28;20419;-35
2021/08/04 02:12:58;;;;;;;10.32;9.07;;;;;;;12.44;84.18;101379.41;5114065;28;20023;-35
2021/08/04 02:15:29;;;;;;;10.32;9.32;;;;;;;12.48;84.60;101379.78;5114310;28;20024;-35
2021/08/04 02:18:01;;;;;;;11.25;9.07;;;;;;;12.51;84.58;101382.03;5114530;28;20026;-35
2021/08/04 02:20:29;;;;;;;12.30;9.65;;;;;;;12.51;84.68;101382.03;5114558;28;20142;-35
2021/08/04 02:23:18;;;;;;;13.93;9.40;;;;;;;12.52;84.49;101383.69;5114067;28;20340;-35
2021/08/04 02:26:14;;;;;;;9.70;8.70;;;;;;;12.51;83.94;101374.72;5113610;28;20038;-34
2021/08/04 02:28:42;;;;;;;10.30;9.30;;;;;;;12.54;84.59;101374.28;5106272;28;20035;-35
2021/08/04 02:31:11;;;;;;;9.98;8.98;;;;;;;12.51;85.45;101373.91;5113990;28;20034;-35
2021/08/04 02:33:37;;;;;;;10.48;9.50;;;;;;;12.45;85.05;101364.00;5113451;28;20020;-35
2021/08/04 02:36:03;;;;;;;12.75;10.88;;;;;;;12.53;84.93;101372.59;5112392;28;20088;-35
2021/08/04 02:38:29;;;;;;;12.23;8.98;;;;;;;12.46;84.08;101363.75;5113807;28;20020;-35
2021/08/04 02:40:55;;;;;;;10.55;9.07;;;;;;;12.52;84.20;101379.09;5113298;28;20019;-35
2021/08/04 02:43:22;;;;;;;9.85;8.85;;;;;;;12.51;84.56;101374.72;5113742;28;20119;-35
2021/08/04 02:45:49;;;;;;;11.45;10.35;;;;;;;12.38;84.78;101358.63;5113547;28;20046;-35
2021/08/04 02:48:16;;;;;;;12.40;11.10;;;;;;;12.51;85.01;101374.72;5113182;28;20464;-35
2021/08/04 02:50:47;;;;;;;11.43;9.95;;;;;;;12.44;84.99;101373.97;5113605;28;20045;-35
2021/08/04 02:53:15;;;;;;;11.20;10.10;;;;;;;12.37;84.73;101367.84;5112676;28;20020;-35
2021/08/04 02:55:40;;;;;;;12.30;11.07;;;;;;;12.34;85.75;101369.09;5113629;28;20127;-35
2021/08/04 02:58:06;;;;;;;13.55;12.25;;;;;;;12.26;87.46;101374.06;5113449;28;20459;-35
2021/08/04 03:00:31;;;;;;;12.67;10.97;;;;;;;12.21;87.21;101369.31;5113639;28;20034;-35
2021/08/04 03:02:57;;;;;;;12.15;10.80;;;;;;;12.22;86.65;101370.13;5113942;28;20026;-35
2021/08/04 03:05:22;;;;;;;11.33;10.20;;;;;;;12.14;86.54;101348.75;5113644;28;20142;-35
2021/08/04 03:07:47;;;;;;;10.33;9.40;;;;;;;12.23;86.33;101360.94;5113897;28;20416;-36
2021/08/04 03:10:13;;;;;;;10.60;9.60;;;;;;;12.31;85.93;101368.75;5113609;28;20016;-36
2021/08/04 03:12:38;;;;;;;10.32;9.23;;;;;;;12.22;86.19;101357.41;5113351;28;20355;-36
2021/08/04 03:15:07;;;;;;;11.83;9.53;;;;;;;12.24;86.20;101359.88;5113725;28;20023;-36
2021/08/04 03:17:32;;;;;;;12.32;10.60;;;;;;;12.24;86.09;101360.69;5112956;28;20257;-36
2021/08/04 03:19:58;;;;;;;11.13;10.03;;;;;;;12.24;85.83;101370.72;5113225;28;20027;-36
2021/08/04 03:22:23;;;;;;;10.10;9.03;;;;;;;12.24;85.82;101370.72;5114006;28;20047;-36
2021/08/04 03:24:48;;;;;;;11.63;9.10;;;;;;;12.03;85.53;101353.06;5113107;28;20446;-36
2021/08/04 03:27:13;;;;;;;11.17;9.17;;;;;;;12.02;85.06;101364.97;5113064;28;20480;-36
2021/08/04 03:29:39;;;;;;;11.17;9.47;;;;;;;12.02;85.28;101365.78;5111484;28;20035;-36
2021/08/04 03:32:05;;;;;;;11.20;10.10;;;;;;;11.96;85.84;101364.00;5113771;28;20269;-36
2021/08/04 03:34:30;;;;;;;11.70;10.55;;;;;;;12.07;86.09;101379.50;5113005;28;20020;-36
2021/08/04 03:36:56;;;;;;;15.07;11.63;;;;;;;12.09;86.15;101381.97;5113647;28;20064;-36
2021/08/04 03:39:21;;;;;;;11.63;10.50;;;;;;;12.03;85.57;101380.19;5113786;28;20024;-36
2021/08/04 03:41:46;;;;;;;12.37;10.60;;;;;;;11.98;85.74;101383.56;5113097;28;20039;-36
2021/08/04 03:44:12;;;;;;;12.03;10.80;;;;;;;11.97;85.60;101390.03;5112862;28;20345;-36
2021/08/04 03:46:37;;;;;;;11.97;10.70;;;;;;;12.00;85.91;101389.56;5113626;28;20265;-36
2021/08/04 03:49:03;;;;;;;12.17;10.80;;;;;;;11.99;85.85;101396.06;5113647;28;20114;-36
2021/08/04 03:51:28;;;;;;;12.60;10.90;;;;;;;11.93;85.29;101388.00;5113389;28;20027;-36
2021/08/04 03:53:53;;;;;;;12.23;10.53;;;;;;;11.96;85.81;101395.69;5111925;28;20039;-36
2021/08/04 03:56:18;;;;;;;11.93;10.73;;;;;;;11.97;85.81;101395.47;5113036;28;20027;-34
2021/08/04 03:58:44;;;;;;;12.77;11.25;;;;;;;11.93;85.87;101394.25;5112597;28;20073;-35
2021/08/04 04:01:09;;;;;;;13.00;11.70;;;;;;;11.88;85.69;101387.88;5113332;28;20134;-35
2021/08/04 04:03:34;;;;;;;14.03;12.23;;;;;;;11.88;86.51;101396.00;5114765;28;20027;-35
2021/08/04 04:06:00;;;;;;;14.63;13.23;;;;;;;11.89;86.83;101389.50;5116558;28;20019;-35
2021/08/04 04:08:25;;;;;;;13.90;12.50;;;;;;;11.92;86.27;101387.19;5116484;28;20111;-35
2021/08/04 04:10:51;;;;;;;13.98;11.73;;;;;;;11.84;86.06;101384.78;5116274;27;20030;-35
2021/08/04 04:13:16;;;;;;;12.00;10.90;;;;;;;11.84;86.16;101390.19;5116479;28;20340;-35
2021/08/04 04:15:41;;;;;;;14.53;12.70;;;;;;;11.87;86.30;101397.06;5116304;28;20020;-35
2021/08/04 04:18:07;;;;;;;14.15;12.70;;;;;;;11.83;86.24;101392.06;5116360;28;20027;-35
2021/08/04 04:20:32;;;;;;;13.53;12.23;;;;;;;11.87;86.56;101394.34;5116786;28;20071;-35
2021/08/04 04:22:58;;;;;;;13.85;12.38;;;;;;;11.91;86.56;101392.81;5116038;28;20019;-35
2021/08/04 04:25:23;;;;;;;12.93;11.63;;;;;;;11.89;86.00;101393.06;5116520;28;20187;-35
2021/08/04 04:27:49;;;;;;;13.18;11.75;;;;;;;11.85;86.12;101389.13;5116279;28;20525;-35
2021/08/04 04:30:14;;;;;;;12.87;11.47;;;;;;;11.99;86.39;101401.47;5116641;28;20024;-35
2021/08/04 04:32:40;;;;;;;12.95;11.63;;;;;;;12.00;86.45;101405.00;5115902;28;20020;-35
2021/08/04 04:35:06;;;;;;;14.10;12.52;;;;;;;12.02;87.03;101398.31;5116474;28;20112;-35
2021/08/04 04:37:31;;;;;;;13.35;12.05;;;;;;;12.13;86.79;101406.75;5116116;28;20107;-35
2021/08/04 04:39:57;;;;;;;14.85;12.75;;;;;;;12.22;87.06;101410.81;5115819;28;20031;-35
2021/08/04 04:42:23;;;;;;;14.40;12.60;;;;;;;12.23;87.11;101397.00;5116004;28;20039;-35
2021/08/04 04:44:48;;;;;;;12.30;11.07;;;;;;;12.31;87.03;101404.84;5115695;28;20265;-35
2021/08/04 04:47:14;;;;;;;12.50;11.30;;;;;;;12.25;86.52;101388.63;5116160;28;20027;-35
2021/08/04 04:49:39;;;;;;;13.33;12.10;;;;;;;12.31;86.42;101399.41;5115444;28;20071;-35
2021/08/04 04:52:05;;;;;;;12.03;10.83;;;;;;;12.39;86.79;101400.97;5115821;28;20024;-35
2021/08/04 04:54:30;;;;;;;12.85;11.55;;;;;;;12.37;86.55;101403.09;5115433;28;20053;-35
2021/08/04 04:56:55;;;;;;;11.90;10.70;;;;;;;12.42;86.64;101397.81;5115577;27;20049;-35
2021/08/04 04:59:21;;;;;;;13.03;11.37;;;;;;;12.48;86.65;101404.19;5116003;28;20057;-35
2021/08/04 05:01:46;;;;;;;12.00;10.80;;;;;;;12.36;86.41;101387.88;5115564;28;20542;-35
2021/08/04 05:04:11;;;;;;;13.17;11.77;;;;;;;12.52;86.74;101408.09;5115135;28;20015;-35
2021/08/04 05:06:37;;;;;;;12.30;11.10;;;;;;;12.51;86.78;101407.28;5115945;28;20455;-35
2021/08/04 05:09:03;;;;;;;13.00;10.53;;;;;;;12.54;86.75;101387.84;5115403;28;20419;-35
2021/08/04 05:11:28;;;;;;;15.27;11.05;;;;;;;12.70;86.40;101399.91;5115527;28;20470;-35
2021/08/04 05:13:54;;;;;;;12.73;11.50;;;;;;;12.78;86.25;101406.88;5115094;28;20114;-35
2021/08/04 05:16:19;;;;;;;12.45;10.73;;;;;;;12.85;86.20;101402.19;5114282;28;20363;-35
2021/08/04 05:18:45;;;;;;;13.15;11.77;;;;;;;13.02;86.40;101416.72;5113410;28;20089;-35
2021/08/04 05:21:10;;;;;;;12.93;11.43;;;;;;;13.07;86.04;101411.44;5115590;28;20126;-35
2021/08/04 05:23:35;;;;;;;16.33;11.83;;;;;;;13.14;85.47;101416.78;5113360;28;20455;-35
2021/08/04 05:26:00;;;;;;;10.00;9.00;;;;;;;13.39;86.03;101419.31;5115359;28;20471;-35
2021/08/04 05:28:26;;;;;;;12.57;11.37;;;;;;;13.45;85.32;101418.34;5114887;28;20028;-35
2021/08/04 05:30:52;;;;;;;15.93;13.03;;;;;;;13.47;85.51;101416.25;5114945;28;20052;-35
2021/08/04 05:33:17;;;;;;;13.95;12.60;;;;;;;13.58;85.23;101423.56;5114794;28;20019;-35
2021/08/04 05:35:43;;;;;;;13.57;11.90;;;;;;;13.77;85.69;101424.25;5114041;28;20111;-35
2021/08/04 05:38:08;;;;;;;16.30;11.70;;;;;;;13.79;84.72;101405.00;5114552;28;20355;-35
2021/08/04 05:40:33;;;;;;;13.40;11.03;;;;;;;13.99;84.19;101408.13;5115066;28;20046;-35
2021/08/04 05:42:59;;;;;;;14.77;12.40;;;;;;;14.25;83.95;101419.53;5114484;28;20363;-35
2021/08/04 05:45:24;;;;;;;13.65;12.25;;;;;;;14.39;83.23;101419.00;5114629;28;20059;-35
2021/08/04 05:47:49;;;;;;;13.77;10.95;;;;;;;14.49;83.29;101418.41;5114587;28;20019;-35
2021/08/04 05:50:15;;;;;;;12.83;10.30;;;;;;;14.50;83.19;101390.16;5114968;28;20043;-35
2021/08/04 05:52:40;;;;;;;13.83;12.43;;;;;;;14.57;82.88;101417.22;5114507;28;20257;-35
2021/08/04 05:55:08;;;;;;;14.67;13.10;;;;;;;14.57;83.27;101423.47;5114941;28;20338;-35
2021/08/04 05:57:34;;;;;;;13.48;12.07;;;;;;;14.71;83.08;101423.19;5114337;28;20315;-35
2021/08/04 05:59:59;;;;;;;14.07;12.68;;;;;;;14.77;83.39;101414.03;5113396;28;20080;-35
2021/08/04 06:02:24;;;;;;;12.97;11.77;;;;;;;14.79;82.64;101423.63;5114284;28;20024;-35
2021/08/04 06:04:50;;;;;;;15.27;12.97;;;;;;;14.86;82.86;101418.84;5114857;28;20276;-35
2021/08/04 06:07:15;;;;;;;14.70;13.05;;;;;;;14.93;83.84;101413.22;5114990;28;20042;-35
2021/08/04 06:09:41;;;;;;;13.50;11.48;;;;;;;14.90;82.41;101414.56;5114908;28;20045;-35
2021/08/04 06:12:09;;;;;;;13.13;11.82;;;;;;;15.07;83.15;101425.44;5114349;28;20032;-35
2021/08/04 06:14:34;;;;;;;12.35;10.98;;;;;;;15.24;82.26;101408.28;5114780;28;20042;-35
2021/08/04 06:17:00;;;;;;;14.20;12.63;;;;;;;15.28;82.30;101415.72;5114842;28;20435;-35
2021/08/04 06:19:25;;;;;;;17.75;12.93;;;;;;;15.31;81.25;101417.94;5114985;28;20015;-35
2021/08/04 06:21:50;;;;;;;13.45;11.10;;;;;;;15.35;81.48;101399.19;5115135;28;20374;-35
2021/08/04 06:24:16;;;;;;;12.75;11.45;;;;;;;15.56;82.23;101422.13;5114369;28;20020;-35
2021/08/04 06:26:41;;;;;;;12.85;11.27;;;;;;;15.78;81.40;101414.84;5114274;28;20031;-35
2021/08/04 06:29:06;;;;;;;9.87;8.97;;;;;;;15.87;80.33;101407.91;5114150;28;20076;-35
2021/08/04 06:31:32;;;;;;;;;;;;;;;16.13;81.32;101421.84;5115054;28;20027;-35
2021/08/04 06:33:57;;;;;;;12.13;10.93;;;;;;;16.17;79.67;101417.53;5113835;28;19911;-35
2021/08/04 06:36:22;;;;;;;;;;;;;;;16.33;80.31;101418.53;5114902;28;20394;-35
2021/08/04 06:38:48;;;;;;;13.82;11.52;;;;;;;16.18;78.06;101397.34;5113946;28;19908;-35
2021/08/04 06:41:13;;;;;;;13.00;10.55;;;;;;;16.28;77.99;101397.47;5114347;28;20029;-35
2021/08/04 06:43:38;;;;;;;;;;;;;;;16.58;79.61;101418.00;5114009;28;20379;-35
2021/08/04 06:46:12;;;;;;;9.40;7.78;;;;;;;16.53;76.50;101409.75;5113736;28;19939;-35
2021/08/04 06:48:37;;;;;;;10.48;9.18;;;;;;;16.63;76.54;101413.41;5113772;28;20110;-35
2021/08/04 06:51:03;;;;;;;13.38;10.13;;;;;;;16.69;76.46;101425.22;5113058;28;20058;-35
2021/08/04 06:53:28;;;;;;;9.48;8.55;;;;;;;16.75;76.39;101428.88;5114201;28;20444;-35
2021/08/04 06:55:53;;;;;;;;;;;;;;;16.85;78.19;101424.31;5113962;28;20467;-35
2021/08/04 06:58:19;;;;;;;12.40;8.03;;;;;;;16.48;77.41;101394.97;5113419;28;19908;-35
2021/08/04 07:00:44;;;;;;;13.98;9.68;;;;;;;16.57;76.76;101411.72;5112261;28;20269;-35
2021/08/04 07:03:09;;;;;;;10.95;9.75;;;;;;;16.68;77.28;101420.81;5113411;28;20066;-35
2021/08/04 07:05:35;;;;;;;;;;;;;;;16.86;77.47;101427.88;5114446;28;20027;-35
2021/08/04 07:08:00;;;;;;;9.30;8.35;;;;;;;16.76;75.04;101425.03;5113707;28;20262;-36
2021/08/04 07:10:25;;;;;;;;;;;;;;;16.92;76.63;101422.19;5114698;28;20020;-36
2021/08/04 07:12:51;;;;;;;11.73;9.95;;;;;;;16.84;76.89;101416.41;5114239;28;20293;-35
2021/08/04 07:15:16;;;;;;;;;;;;;;;17.05;76.47;101423.69;5113980;28;20512;-36
2021/08/04 07:17:46;;;;;;;13.57;10.23;;;;;;;17.03;78.21;101430.47;5114146;28;20420;-36
2021/08/04 07:20:14;;;;;;;11.13;8.63;;;;;;;16.95;75.68;101418.13;5113301;28;20273;-36
2021/08/04 07:22:39;;;;;;;8.25;7.03;;;;;;;17.08;72.44;101416.84;5113518;28;20066;-35
2021/08/04 07:25:05;;;;;;;7.70;6.90;;;;;;;17.11;72.94;101427.28;5113516;28;20126;-35
2021/08/04 07:27:30;;;;;;;8.70;5.57;;;;;;;17.14;70.99;101422.13;5113623;28;20051;-35
2021/08/04 07:29:55;;;;;;;;;;;;;;;17.28;74.16;101421.69;5113815;28;20081;-35
2021/08/04 07:32:21;;;;;;;8.30;7.43;;;;;;;17.21;73.28;101416.41;5113787;28;19907;-36
2021/08/04 07:34:46;;;;;;;9.57;7.80;;;;;;;17.02;72.81;101396.88;5113316;28;20501;-35
2021/08/04 07:37:11;;;;;;;7.53;6.78;;;;;;;17.10;71.36;101403.78;5113946;28;20027;-35
2021/08/04 07:39:36;;;;;;;;;;;;;;;17.27;73.71;101411.81;5117073;28;20062;-36
2021/08/04 07:42:02;;;;;;;11.20;7.37;;;;;;;17.15;71.41;101395.63;5116920;28;19904;-35
2021/08/04 07:44:27;;;;;;;10.18;6.65;;;;;;;17.19;71.19;101408.50;5117075;28;20277;-36
2021/08/04 07:46:53;;;;;;;;;;;;;;;17.32;71.28;101414.59;5116654;28;20375;-40
2021/08/04 07:49:18;;;;;;;9.93;8.43;;;;;;;17.28;71.92;101421.69;5117334;28;20041;-35
2021/08/04 07:51:43;;;;;;;;;;;;;;;17.35;70.71;101420.34;5117881;28;20023;-35
2021/08/04 07:54:09;;;;;;;9.53;7.60;;;;;;;17.33;71.34;101413.53;5116977;28;19903;-35
2021/08/04 07:56:34;;;;;;;6.38;5.45;;;;;;;17.45;70.37;101414.13;5117738;28;20352;-35
2021/08/04 07:59:02;;;;;;;;;;;;;;;17.60;72.21;101413.41;5118212;28;20104;-35
2021/08/04 08:01:29;;;;;;;9.48;6.82;;;;;;;17.70;71.59;101408.81;5117457;28;20244;-36
2021/08/04 08:03:55;;;;;;;8.68;6.53;;;;;;;17.79;70.48;101411.91;5116779;28;20020;-35
2021/08/04 08:06:20;;;;;;;9.20;6.90;;;;;;;17.90;69.99;101410.88;5116860;28;20027;-36
2021/08/04 08:08:45;;;;;;;;;;;;;;;17.97;69.57;101406.00;5116971;28;20106;-36
2021/08/04 08:11:10;;;;;;;9.50;6.60;;;;;;;17.86;67.63;101398.00;5116837;28;19903;-36
2021/08/04 08:13:36;;;;;;;9.93;6.40;;;;;;;18.01;69.34;101409.03;5116508;28;20329;-36
2021/08/04 08:16:01;;;;;;;;;;;;;;;18.13;68.38;101409.63;5117243;28;20024;-36
2021/08/04 08:18:27;;;;;;;7.00;6.10;;;;;;;17.96;67.55;101392.59;5116877;28;19915;-36
2021/08/04 08:20:52;;;;;;;;;;;;;;;18.14;66.59;101407.69;5117015;28;20468;-36
2021/08/04 08:23:17;;;;;;;5.70;4.00;;;;;;;18.11;65.00;101403.59;5115167;28;20401;-36
2021/08/04 08:25:42;;;;;;;;;;;;;;;18.17;62.57;101407.19;5117174;28;20118;-36
2021/08/04 08:28:08;;;;;;;8.23;4.53;;;;;;;18.14;65.18;101403.03;5115912;27;19907;-36
2021/08/04 08:30:35;;;;;;;6.50;4.80;;;;;;;18.11;66.19;101387.19;5116135;28;20269;-36
2021/08/04 08:33:01;;;;;;;10.15;5.75;;;;;;;18.28;64.01;101393.25;5116508;28;20470;-36
2021/08/04 08:35:26;;;;;;;;;;;;;;;18.45;65.92;101394.94;5115219;28;20047;-36
2021/08/04 08:37:52;;;;;;;8.55;5.72;;;;;;;18.56;65.98;101404.00;5116354;28;19946;-36
2021/08/04 08:40:17;;;;;;;;;;;;;;;18.74;67.61;101387.91;5116993;28;20024;-36
2021/08/04 08:42:44;;;;;;;8.52;5.50;;;;;;;18.82;66.28;101394.75;5115721;28;19907;-36
2021/08/04 08:45:10;;;;;;;8.98;6.50;;;;;;;18.82;64.04;101392.00;5116232;28;20031;-36
2021/08/04 08:47:43;;;;;;;9.25;5.63;;;;;;;18.93;64.85;101376.38;5116609;28;20406;-36
2021/08/04 08:50:10;;;;;;;8.55;6.45;;;;;;;19.03;61.87;101384.59;5116321;28;20068;-36
2021/08/04 08:52:35;;;;;;;7.45;6.35;;;;;;;19.10;59.88;101385.16;5115568;28;20072;-35
2021/08/04 08:55:01;;;;;;;;;;;;;;;19.28;63.10;101390.09;5116102;28;20028;-35
2021/08/04 08:57:28;;;;;;;7.25;6.32;;;;;;;19.09;62.09;101378.06;5115482;28;19908;-35
2021/08/04 08:59:57;;;;;;;9.15;7.30;;;;;;;19.06;61.28;101392.28;5116368;28;20023;-35
2021/08/04 09:02:23;;;;;;;8.50;6.43;;;;;;;19.18;61.82;101387.38;5116363;28;20030;-35
2021/08/04 09:05:01;;;;;;;;;;;;;;;19.34;61.58;101388.16;5115742;27;20424;-35
2021/08/04 09:07:34;;;;;;;6.07;4.75;;;;;;;19.19;59.94;101369.00;5115016;28;20271;-35
2021/08/04 09:10:01;;;;;;;7.28;4.85;;;;;;;19.47;57.84;101390.34;5115490;28;20023;-35
2021/08/04 09:12:26;;;;;;;9.02;5.93;;;;;;;19.32;55.85;101373.06;5116050;28;20024;-35
2021/08/04 09:14:52;;;;;;;;;;;;;;;19.57;56.23;101395.00;5115618;28;20098;-34
2021/08/04 09:17:17;;;;;;;6.80;5.18;;;;;;;19.56;56.94;101391.41;5114477;28;19912;-35
2021/08/04 09:19:44;;;;;;;;;;;;;;;19.73;56.59;101404.84;5115620;28;20033;-36
2021/08/04 09:22:19;;;;;;;7.57;5.53;;;;;;;19.87;58.26;101390.53;5115654;28;20381;-36
2021/08/04 09:24:51;;;;;;;8.47;6.97;;;;;;;19.79;58.49;101391.94;5115468;28;20020;-36
2021/08/04 09:27:17;;;;;;;7.38;6.47;;;;;;;19.85;61.19;101384.50;5115438;28;20367;-36
2021/08/04 09:29:56;;;;;;;;;;;;;;;20.11;59.35;101393.47;5116052;28;20024;-36
2021/08/04 09:32:22;;;;;;;6.75;5.40;;;;;;;20.26;57.33;101383.22;5114817;28;19929;-36
2021/08/04 09:34:47;;;;;;;6.80;5.18;;;;;;;20.32;55.58;101379.34;5114858;28;20031;-36
2021/08/04 09:37:16;;;;;;;;;;;;;;;20.54;54.92;101391.88;5115449;28;20413;-36
2021/08/04 09:39:44;;;;;;;6.18;4.70;;;;;;;20.37;55.02;101380.41;5113718;28;19903;-36
2021/08/04 09:42:12;;;;;;;7.15;5.30;;;;;;;20.34;54.68;101390.03;5115091;28;20027;-36
2021/08/04 09:44:58;;;;;;;7.95;5.55;;;;;;;20.29;57.06;101390.06;5114628;28;20058;-36
2021/08/04 09:47:24;;;;;;;7.32;5.60;;;;;;;20.37;56.41;101397.72;5115039;28;20023;-36
2021/08/04 09:49:54;;;;;;;8.13;5.68;;;;;;;20.57;55.58;101389.38;5114643;28;20019;-36
2021/08/04 09:52:20;;;;;;;6.75;5.45;;;;;;;20.80;56.41;101393.34;5114950;28;20146;-36
2021/08/04 09:54:45;;;;;;;;;;;;;;;21.03;57.17;101386.31;5114817;28;20110;-36
2021/08/04 09:57:11;;;;;;;7.18;6.00;;;;;;;20.25;54.58;101381.59;5114951;28;19933;-36
2021/08/04 09:59:37;;;;;;;8.80;6.10;;;;;;;20.14;56.79;101377.22;5114579;28;20023;-36
2021/08/04 10:02:04;;;;;;;;;;;;;;;20.22;57.71;101376.66;5114282;28;20448;-36
2021/08/04 10:04:30;;;;;;;10.35;5.32;;;;;;;19.89;57.93;101386.41;5114191;28;20416;-36
2021/08/04 10:07:06;;;;;;;;;;;;;;;20.03;59.48;101381.13;5114947;28;20028;-36
2021/08/04 10:09:32;;;;;;;9.45;6.07;;;;;;;19.76;58.97;101381.50;5114359;28;19915;-36
2021/08/04 10:11:57;;;;;;;;;;;;;;;19.86;59.61;101370.47;5114774;28;20024;-36
2021/08/04 10:14:23;;;;;;;8.07;5.73;;;;;;;19.75;59.64;101375.19;5114088;28;19992;-36
2021/08/04 10:16:49;;;;;;;;;;;;;;;19.86;60.07;101375.16;5114922;28;20273;-36
2021/08/04 10:19:16;;;;;;;7.95;5.85;;;;;;;20.05;59.32;101374.25;5114198;28;19907;-36
2021/08/04 10:21:43;;;;;;;6.22;5.63;;;;;;;20.46;57.99;101368.56;5114855;28;20082;-36
2021/08/04 10:24:11;;;;;;;8.85;6.32;;;;;;;20.49;56.63;101358.94;5114892;27;20047;-36
2021/08/04 10:26:37;;;;;;;7.95;6.05;;;;;;;20.58;56.86;101363.53;5114398;28;20019;-36
2021/08/04 10:29:03;;;;;;;;;;;;;;;20.88;58.84;101375.41;5114199;28;20026;-36
2021/08/04 10:31:28;;;;;;;9.63;6.32;;;;;;;20.91;54.43;101350.09;5114423;28;19910;-36
2021/08/04 10:33:57;;;;;;;6.78;6.07;;;;;;;20.76;55.89;101356.53;5112809;28;20054;-36
2021/08/04 10:36:29;;;;;;;7.05;6.00;;;;;;;20.58;55.60;101352.56;5114314;28;20079;-36
2021/08/04 10:38:58;;;;;;;7.15;6.05;;;;;;;20.56;54.80;101357.53;5114207;27;20031;-36
2021/08/04 10:41:27;;;;;;;10.50;6.20;;;;;;;20.79;54.11;101361.47;5114464;28;20443;-36
2021/08/04 10:44:05;;;;;;;7.60;5.95;;;;;;;20.87;52.19;101327.03;5113784;28;20019;-36
2021/08/04 10:46:30;;;;;;;8.07;4.57;;;;;;;21.37;51.75;101352.44;5113813;28;20114;-36
2021/08/04 10:49:16;;;;;;;;;;;;;;;21.62;51.40;101359.63;5113829;28;20068;-36
2021/08/04 10:52:01;;;;;;;6.30;5.57;;;;;;;21.76;51.18;101359.72;5102611;28;19904;-36
2021/08/04 10:54:32;;;;;;;7.65;4.68;;;;;;;22.03;49.31;101354.41;5113979;28;20404;-36
2021/08/04 10:56:57;;;;;;;6.40;4.28;;;;;;;22.20;51.02;101344.84;5113557;28;20475;-36
2021/08/04 10:59:24;;;;;;;7.70;4.68;;;;;;;22.32;49.24;101332.28;5113992;28;20015;-36
2021/08/04 11:02:15;;;;;;;6.40;4.15;;;;;;;22.53;50.68;101334.72;5113881;28;20546;-36
2021/08/04 11:04:43;;;;;;;5.00;4.38;;;;;;;22.71;48.41;101342.16;5114112;28;20027;-36
2021/08/04 11:07:08;;;;;;;6.07;4.75;;;;;;;22.58;47.80;101338.22;5113780;28;20460;-36
2021/08/04 11:09:41;;;;;;;5.80;4.03;;;;;;;22.65;47.74;101323.25;5113476;28;20149;-36
2021/08/04 11:12:08;;;;;;;5.80;4.20;;;;;;;22.88;47.56;101334.16;5113481;28;20024;-36
2021/08/04 11:14:46;;;;;;;7.05;4.07;;;;;;;22.98;48.84;101329.59;5116962;28;20066;-36
2021/08/04 11:17:33;;;;;;;5.75;4.15;;;;;;;23.20;48.33;101329.75;5118194;28;20042;-36
2021/08/04 11:20:05;;;;;;;7.78;4.40;;;;;;;23.16;45.10;101320.44;5117277;28;20438;-36
2021/08/04 11:22:37;;;;;;;5.35;4.40;;;;;;;23.09;46.64;101317.28;5118289;28;20020;-35
2021/08/04 11:25:08;;;;;;;5.97;4.57;;;;;;;23.10;46.97;101316.16;5117083;28;20493;-35